Time;durP1;ratioP1;P1;durP2;ratioP2;P2;SDS_P1;SDS_P2;PMS_P1;PMS_P2;Temp;Humidity;BMP_temperature;BMP_pressure;BME280_temperature;BME280_humidity;BME280_pressure;Samples;Min_cycle;Max_cycle;Signal;HPM_P1;HPM_P2
2022/01/22 00:00:26;;;;;;;259.67;247.63;;;;;;;6.76;87.42;101843.19;5047817;28;20091;-66
2022/01/22 00:02:53;;;;;;;242.40;231.20;;;;;;;6.50;88.57;101861.06;5049495;28;20041;-66
2022/01/22 00:05:21;;;;;;;324.95;306.27;;;;;;;6.52;88.75;101853.19;5050725;28;20068;-66
2022/01/22 00:07:48;;;;;;;377.70;357.30;;;;;;;6.45;89.66;101852.44;5049431;28;20562;-66
2022/01/22 00:10:17;;;;;;;250.45;239.30;;;;;;;6.65;88.68;101865.97;5045258;28;20110;-65
2022/01/22 00:13:06;;;;;;;371.92;351.73;;;;;;;6.67;87.76;101851.19;5057863;28;20048;-65
2022/01/22 00:15:35;;;;;;;270.98;258.45;;;;;;;6.63;88.82;101856.47;5050085;28;20045;-66
2022/01/22 00:18:02;;;;;;;269.50;257.50;;;;;;;6.80;87.96;101852.66;5047814;28;20055;-66
2022/01/22 00:20:29;;;;;;;261.80;250.13;;;;;;;6.74;88.45;101850.19;5049648;28;20053;-66
2022/01/22 00:22:56;;;;;;;216.10;205.73;;;;;;;6.86;88.05;101864.75;5049552;28;20045;-66
2022/01/22 00:25:22;;;;;;;202.15;193.05;;;;;;;6.89;87.68;101864.69;5044238;28;20048;-66
2022/01/22 00:27:51;;;;;;;271.33;258.77;;;;;;;6.94;87.53;101864.59;5047900;28;20118;-65
2022/01/22 00:30:20;;;;;;;298.35;284.10;;;;;;;6.97;87.49;101873.22;5034188;28;20049;-67
2022/01/22 00:32:48;;;;;;;313.10;298.08;;;;;;;6.75;88.51;101862.34;5048753;28;20555;-67
2022/01/22 00:35:15;;;;;;;444.33;417.42;;;;;;;6.72;88.96;101871.97;5031392;28;20425;-67
2022/01/22 00:37:43;;;;;;;222.70;211.93;;;;;;;6.76;88.90;101869.25;5046284;28;20583;-66
2022/01/22 00:40:11;;;;;;;332.98;316.25;;;;;;;6.75;88.48;101864.06;5039718;28;20475;-70
2022/01/22 00:42:38;;;;;;;260.92;247.80;;;;;;;6.88;88.28;101875.13;5045322;28;20073;-66
2022/01/22 00:45:05;;;;;;;269.75;256.73;;;;;;;6.77;88.52;101875.31;5048101;28;20098;-66
2022/01/22 00:47:32;;;;;;;235.10;223.52;;;;;;;6.80;88.50;101870.91;5046827;28;20049;-67
2022/01/22 00:50:00;;;;;;;246.48;233.20;;;;;;;6.77;88.82;101875.31;5035167;28;20107;-66
2022/01/22 00:52:26;;;;;;;178.27;168.80;;;;;;;6.92;88.53;101882.88;5047660;28;20390;-67
2022/01/22 00:54:52;;;;;;;253.52;240.52;;;;;;;7.07;87.28;101874.75;5045424;28;20060;-67
2022/01/22 00:57:19;;;;;;;214.13;203.23;;;;;;;7.03;87.66;101878.31;5048610;28;20390;-67
2022/01/22 00:59:45;;;;;;;282.30;268.35;;;;;;;6.88;87.92;101886.41;5049319;28;20037;-66
2022/01/22 01:02:11;;;;;;;332.23;312.95;;;;;;;6.69;89.30;101893.69;5049531;28;20049;-66
2022/01/22 01:04:38;;;;;;;264.40;251.13;;;;;;;6.81;88.83;101893.50;5047106;28;20477;-66
2022/01/22 01:07:06;;;;;;;251.43;239.20;;;;;;;7.17;87.53;101891.94;5041780;28;20061;-67
2022/01/22 01:09:34;;;;;;;300.17;283.55;;;;;;;6.93;88.09;101888.94;5049483;28;20488;-67
2022/01/22 01:12:03;;;;;;;229.20;218.07;;;;;;;6.88;88.60;101899.44;5049514;28;20051;-67
2022/01/22 01:14:36;;;;;;;264.40;251.77;;;;;;;6.95;88.07;101889.78;5042527;28;20083;-67
2022/01/22 01:17:11;;;;;;;257.02;244.63;;;;;;;6.69;89.40;101893.69;5047164;28;20517;-66
2022/01/22 01:33:28;;;;;;;295.83;281.83;;;;;;;7.06;87.32;101896.50;5047857;28;20901;-67
2022/01/22 01:35:55;;;;;;;420.40;397.73;;;;;;;6.96;88.03;101899.31;5036694;28;20064;-66
2022/01/22 01:38:23;;;;;;;234.82;223.85;;;;;;;6.99;87.99;101894.03;5048701;28;20049;-66
2022/01/22 01:40:58;;;;;;;266.25;254.13;;;;;;;7.12;87.32;101898.16;5048071;28;20056;-67
2022/01/22 01:43:29;;;;;;;228.00;217.73;;;;;;;7.05;87.94;101902.63;5048139;28;20040;-66
2022/01/22 01:45:55;;;;;;;;;;;;;;;7.19;86.79;101903.22;5048896;28;20806;-66
2022/01/22 01:48:26;;;;;;;267.38;255.52;;;;;;;7.13;86.95;101894.66;5048245;28;19921;-66
2022/01/22 01:50:55;;;;;;;283.48;270.55;;;;;;;7.24;86.71;101900.53;5048610;28;20045;-66
2022/01/22 01:53:41;;;;;;;367.17;346.85;;;;;;;6.91;87.51;101911.59;5048237;28;20047;-66
2022/01/22 01:57:26;;;;;;;280.88;268.13;;;;;;;6.94;88.64;101930.66;5044748;28;20040;-66
2022/01/22 01:58:55;;;;;;;245.73;234.35;;;;;;;6.96;88.56;101925.38;5045029;28;20145;-66
2022/01/22 02:01:21;;;;;;;237.30;226.55;;;;;;;6.95;88.76;101927.13;5047794;28;20133;-66
2022/01/22 02:03:48;;;;;;;246.43;235.32;;;;;;;6.55;90.17;101916.53;5048253;28;20102;-66
2022/01/22 02:06:15;;;;;;;295.20;282.40;;;;;;;6.44;90.25;101921.06;5048524;28;20497;-66
2022/01/22 02:08:42;;;;;;;691.50;635.20;;;;;;;6.03;91.88;101928.63;5048852;28;20049;-66
2022/01/22 02:11:10;;;;;;;326.73;311.90;;;;;;;6.26;90.89;101930.03;5048349;28;20459;-66
2022/01/22 02:13:57;;;;;;;292.10;279.60;;;;;;;6.25;90.65;101935.25;5048057;28;20472;-66
2022/01/22 02:24:43;;;;;;;288.33;274.98;;;;;;;6.20;90.30;101929.25;5057340;28;20090;-66
2022/01/22 02:27:10;;;;;;;231.38;220.90;;;;;;;6.15;89.96;101931.06;5048353;28;20045;-66
2022/01/22 02:29:36;;;;;;;289.55;276.25;;;;;;;6.23;89.32;101940.50;5055573;28;20103;-66
2022/01/22 02:32:24;;;;;;;287.10;272.70;;;;;;;6.16;89.49;101938.88;5052607;28;20101;-66
2022/01/22 02:34:52;;;;;;;208.13;198.85;;;;;;;6.27;88.77;101926.53;5027438;28;20137;-66
2022/01/22 02:37:22;;;;;;;267.95;255.95;;;;;;;6.42;88.32;101932.41;5038664;28;20044;-66
2022/01/22 02:39:59;;;;;;;330.20;314.00;;;;;;;6.46;88.33;101947.09;5048238;28;20390;-66
2022/01/22 02:42:29;;;;;;;191.25;182.65;;;;;;;6.63;87.38;101934.66;5046835;28;20060;-66
2022/01/22 02:44:56;;;;;;;491.00;461.85;;;;;;;6.44;86.98;101947.09;5046291;28;20041;-66
2022/01/22 02:47:23;;;;;;;319.98;305.35;;;;;;;6.47;87.11;101947.06;5046075;28;20413;-66
2022/01/22 02:49:50;;;;;;;332.50;317.00;;;;;;;6.32;87.05;101952.50;5043425;28;20072;-66
2022/01/22 02:52:17;;;;;;;305.48;289.83;;;;;;;6.36;86.83;101954.19;5047715;28;20098;-66
2022/01/22 02:54:46;;;;;;;339.00;322.38;;;;;;;6.34;86.29;101958.56;5041302;28;20055;-66
2022/01/22 02:57:13;;;;;;;546.58;514.05;;;;;;;6.28;85.99;101964.72;5047911;28;20041;-66
2022/01/22 02:59:40;;;;;;;299.77;286.45;;;;;;;6.25;86.26;101964.75;5047280;28;20048;-66
2022/01/22 03:02:09;;;;;;;305.95;292.15;;;;;;;6.34;85.49;101975.06;5048674;28;20048;-67
2022/01/22 03:04:35;;;;;;;441.55;418.25;;;;;;;6.34;85.15;101985.47;5050490;28;20049;-66
2022/01/22 03:07:01;;;;;;;353.50;335.95;;;;;;;6.01;86.53;101979.88;5046969;28;20077;-66
2022/01/22 03:09:30;;;;;;;285.42;272.35;;;;;;;5.93;87.32;101979.09;5051777;28;20111;-66
2022/01/22 03:12:16;;;;;;;273.10;260.52;;;;;;;6.11;85.96;101984.06;5051428;28;20110;-67
2022/01/22 03:15:27;;;;;;;265.83;253.43;;;;;;;6.27;85.40;101983.84;5031860;28;20038;-67
2022/01/22 03:17:53;;;;;;;246.07;235.02;;;;;;;6.24;85.48;101989.09;5039516;28;20037;-67
2022/01/22 03:20:36;;;;;;;267.10;254.02;;;;;;;6.35;85.09;102008.03;5049410;28;20480;-67
2022/01/22 03:23:09;;;;;;;233.35;222.15;;;;;;;6.38;84.96;102004.53;5050465;28;20055;-67
2022/01/22 03:28:25;;;;;;;314.35;299.38;;;;;;;6.41;84.49;102006.22;5050949;28;20175;-67
2022/01/22 03:30:52;;;;;;;240.57;229.45;;;;;;;6.38;84.68;102016.69;5048198;28;20072;-67
2022/01/22 03:33:22;;;;;;;217.50;207.32;;;;;;;6.27;85.16;102017.72;5047855;28;20102;-67
2022/01/22 03:35:55;;;;;;;204.90;195.02;;;;;;;6.30;85.52;102024.59;5050882;28;20051;-67
2022/01/22 03:38:22;;;;;;;235.13;224.35;;;;;;;6.46;84.38;102025.25;5050572;28;20045;-67
2022/01/22 03:40:50;;;;;;;273.33;260.73;;;;;;;6.50;84.29;102027.81;5040888;28;20045;-67
2022/01/22 03:43:17;;;;;;;175.55;167.38;;;;;;;6.32;84.62;102033.25;5036371;28;20045;-67
2022/01/22 03:45:44;;;;;;;237.88;226.15;;;;;;;6.29;84.79;102033.28;5051771;28;20049;-67
2022/01/22 03:48:11;;;;;;;233.93;223.13;;;;;;;6.27;85.11;102041.16;5042530;28;20045;-67
2022/01/22 03:50:37;;;;;;;236.65;226.15;;;;;;;6.40;84.76;102040.97;5050826;28;20729;-67
2022/01/22 03:53:04;;;;;;;240.02;229.05;;;;;;;6.53;84.25;102053.81;5050463;28;20100;-67
2022/01/22 03:55:40;;;;;;;225.65;215.02;;;;;;;6.51;84.21;102063.38;5050405;28;20044;-67
2022/01/22 03:58:06;;;;;;;209.75;200.38;;;;;;;6.72;83.43;102067.44;5042433;28;20465;-67
2022/01/22 04:00:33;;;;;;;239.85;229.02;;;;;;;6.86;82.89;102078.53;5050711;28;20460;-67
2022/01/22 04:06:03;;;;;;;219.48;209.55;;;;;;;6.88;82.33;102081.09;5028597;28;20045;-67
2022/01/22 04:08:29;;;;;;;300.38;285.95;;;;;;;6.74;82.45;102079.56;5045882;28;20055;-67
2022/01/22 04:10:55;;;;;;;231.70;221.30;;;;;;;6.59;83.09;102087.59;5057741;28;20048;-67
2022/01/22 04:13:29;;;;;;;235.55;224.23;;;;;;;6.66;83.04;102091.84;5057357;28;20098;-67
2022/01/22 04:15:56;;;;;;;252.10;240.50;;;;;;;6.58;83.34;102090.22;5050299;28;20463;-67
2022/01/22 04:26:42;;;;;;;234.35;223.48;;;;;;;6.49;83.52;102106.84;5046536;28;20102;-67
2022/01/22 04:29:08;;;;;;;272.08;259.80;;;;;;;6.62;82.97;102108.41;5050161;28;20122;-67
2022/01/22 04:31:35;;;;;;;246.88;235.77;;;;;;;6.68;82.50;102113.53;5049961;28;20505;-67
2022/01/22 04:34:03;;;;;;;285.40;271.38;;;;;;;6.37;84.03;102120.03;5053096;28;20094;-66
2022/01/22 04:36:29;;;;;;;235.63;225.20;;;;;;;6.60;83.14;102112.78;5049648;28;20554;-69
2022/01/22 04:38:55;;;;;;;268.67;255.88;;;;;;;6.51;83.94;102117.25;5049874;28;20048;-67
2022/01/22 04:41:22;;;;;;;208.40;199.18;;;;;;;6.58;82.93;102130.16;5050596;28;20041;-67
2022/01/22 04:43:50;;;;;;;265.17;253.20;;;;;;;6.68;82.77;102110.94;5064536;28;20111;-67
2022/01/22 04:46:21;;;;;;;265.52;253.45;;;;;;;6.66;82.67;102117.03;5049511;28;20106;-67
2022/01/22 04:49:04;;;;;;;238.88;227.32;;;;;;;6.59;82.90;102111.06;5042867;28;20045;-67
2022/01/22 04:57:01;;;;;;;250.93;239.73;;;;;;;6.99;80.75;102126.97;5049510;28;20056;-67
2022/01/22 04:59:27;;;;;;;295.23;281.60;;;;;;;6.81;80.91;102130.72;5049376;28;20462;-67
2022/01/22 05:01:54;;;;;;;288.33;275.38;;;;;;;6.82;81.88;102140.28;5049651;28;20060;-67
2022/01/22 05:04:20;;;;;;;289.05;275.77;;;;;;;7.06;80.94;102135.59;5048739;28;20094;-67
2022/01/22 05:06:48;;;;;;;306.30;292.63;;;;;;;7.04;80.78;102137.34;5049003;28;20045;-68
2022/01/22 05:09:14;;;;;;;281.85;268.88;;;;;;;7.25;80.13;102137.00;5049656;28;20049;-68
2022/01/22 05:11:40;;;;;;;287.60;274.33;;;;;;;7.21;80.36;102144.03;5064007;28;20040;-67
2022/01/22 05:14:07;;;;;;;362.63;345.52;;;;;;;7.10;80.36;102147.69;5048519;28;20106;-68
2022/01/22 05:16:33;;;;;;;285.40;272.25;;;;;;;6.95;81.25;102146.16;5049145;28;20110;-67
2022/01/22 05:19:04;;;;;;;265.58;253.68;;;;;;;6.67;82.38;102156.13;5048742;28;20061;-67
2022/01/22 05:21:33;;;;;;;305.10;290.77;;;;;;;6.73;82.11;102161.25;5049293;28;20067;-68
2022/01/22 05:24:05;;;;;;;265.48;253.10;;;;;;;6.89;81.75;102153.22;5048582;28;20131;-67
2022/01/22 05:26:56;;;;;;;276.60;263.58;;;;;;;7.11;80.76;102162.47;5048250;28;20128;-67
2022/01/22 05:29:45;;;;;;;291.02;277.40;;;;;;;7.03;80.49;102165.19;5049210;28;20052;-68
2022/01/22 05:32:33;;;;;;;272.42;259.98;;;;;;;7.04;81.27;102166.91;5050804;28;20048;-67
2022/01/22 05:37:43;;;;;;;318.85;303.52;;;;;;;6.90;81.31;102173.19;5048940;28;20191;-67
2022/01/22 05:40:11;;;;;;;332.63;315.63;;;;;;;6.89;81.79;102167.13;5049189;28;20062;-67
2022/01/22 05:42:38;;;;;;;276.83;263.88;;;;;;;6.85;82.17;102179.34;5048772;28;20094;-68
2022/01/22 05:45:04;;;;;;;271.23;258.45;;;;;;;7.00;81.55;102180.00;5038716;28;20127;-68
2022/01/22 05:47:31;;;;;;;307.05;292.13;;;;;;;6.96;81.51;102183.53;5039372;28;20049;-68
2022/01/22 05:49:58;;;;;;;355.30;337.52;;;;;;;6.57;83.00;102190.16;5047711;28;20692;-68
2022/01/22 05:52:31;;;;;;;290.85;277.70;;;;;;;6.78;82.82;102197.69;5048647;28;20056;-68
2022/01/22 05:55:39;;;;;;;296.88;282.70;;;;;;;6.79;82.58;102194.22;5048597;28;20045;-68
2022/01/22 06:00:52;;;;;;;263.42;250.73;;;;;;;7.08;81.12;102205.09;5046354;28;20071;-68
2022/01/22 06:03:18;;;;;;;257.95;245.77;;;;;;;7.25;80.46;102212.66;5047671;28;20524;-68
2022/01/22 06:05:45;;;;;;;284.77;271.55;;;;;;;7.13;80.64;102205.88;5049128;28;20045;-68
2022/01/22 06:08:15;;;;;;;269.50;256.80;;;;;;;7.15;80.71;102209.34;5047179;28;20118;-68
2022/01/22 06:10:41;;;;;;;293.85;279.75;;;;;;;7.08;80.80;102212.94;5048721;28;20394;-68
2022/01/22 06:13:15;;;;;;;283.35;268.40;;;;;;;7.08;81.46;102219.88;5048265;28;20041;-68
2022/01/22 06:15:41;;;;;;;284.10;269.55;;;;;;;6.97;81.38;102221.78;5048005;28;20051;-68
2022/01/22 06:18:07;;;;;;;327.13;309.65;;;;;;;6.92;81.29;102219.22;5047300;28;20048;-68
2022/01/22 06:20:34;;;;;;;268.63;254.52;;;;;;;6.97;81.37;102222.66;5048188;28;20045;-68
2022/01/22 06:23:00;;;;;;;274.02;258.67;;;;;;;6.91;81.46;102220.09;5048012;28;20106;-68
2022/01/22 06:25:27;;;;;;;300.45;285.33;;;;;;;7.04;80.93;102228.63;5048219;28;20099;-68
2022/01/22 06:27:53;;;;;;;242.57;229.98;;;;;;;7.06;80.34;102222.50;5048150;28;20049;-68
2022/01/22 06:30:22;;;;;;;265.65;252.85;;;;;;;6.69;82.14;102235.16;5047287;28;20125;-68
2022/01/22 06:32:48;;;;;;;254.98;242.13;;;;;;;6.87;81.58;102239.31;5047514;28;20091;-68
2022/01/22 06:35:14;;;;;;;268.83;255.95;;;;;;;7.05;80.64;102238.19;5048171;28;20467;-68
2022/01/22 06:37:41;;;;;;;266.50;253.65;;;;;;;7.02;80.80;102235.63;5051150;28;20111;-68
2022/01/22 06:42:56;;;;;;;262.05;249.82;;;;;;;7.12;80.37;102235.47;5026031;28;20072;-68
2022/01/22 06:45:24;;;;;;;262.08;250.23;;;;;;;7.13;80.09;102239.78;5051352;28;20041;-68
2022/01/22 06:47:50;;;;;;;283.80;270.13;;;;;;;7.26;79.78;102240.50;5051765;28;20091;-68
2022/01/22 06:50:18;;;;;;;246.15;234.23;;;;;;;7.07;80.53;102241.63;5052581;28;20044;-68
2022/01/22 06:52:45;;;;;;;281.90;268.65;;;;;;;7.25;79.51;102257.03;5051789;28;20562;-68
2022/01/22 06:55:15;;;;;;;279.55;265.60;;;;;;;7.01;80.26;102260.84;5046934;28;20045;-68
2022/01/22 06:57:41;;;;;;;311.45;296.80;;;;;;;7.05;80.54;102269.50;5051859;28;20056;-68
2022/01/22 07:00:09;;;;;;;312.30;297.45;;;;;;;7.14;79.85;102267.59;5051644;28;20057;-68
2022/01/22 07:02:37;;;;;;;297.88;283.70;;;;;;;7.11;79.84;102272.00;5050190;28;20148;-67
2022/01/22 07:05:04;;;;;;;319.17;304.63;;;;;;;7.05;80.20;102272.09;5050563;28;20075;-68
2022/01/22 07:07:31;;;;;;;295.55;281.70;;;;;;;7.13;79.90;102283.31;5051802;28;20102;-67
2022/01/22 07:09:57;;;;;;;318.25;303.70;;;;;;;7.21;79.15;102271.00;5052078;28;20044;-67
2022/01/22 07:12:23;;;;;;;310.52;295.33;;;;;;;7.16;79.55;102281.50;5051572;28;20091;-68
2022/01/22 07:14:50;;;;;;;355.42;338.40;;;;;;;7.16;79.28;102284.13;5051919;28;20102;-68
2022/01/22 07:17:17;;;;;;;325.95;310.30;;;;;;;7.05;79.99;102283.41;5051519;28;20178;-67
2022/01/22 07:19:45;;;;;;;287.83;273.63;;;;;;;6.98;80.01;102288.72;5051411;28;20056;-68
2022/01/22 07:22:32;;;;;;;297.15;283.17;;;;;;;7.19;79.65;102285.81;5043658;28;20049;-68
2022/01/22 07:24:59;;;;;;;282.55;269.40;;;;;;;7.40;78.49;102290.72;5042015;28;20485;-68
2022/01/22 07:27:25;;;;;;;347.55;331.10;;;;;;;6.94;80.24;102294.84;5051210;28;20044;-68
2022/01/22 07:29:52;;;;;;;320.58;304.58;;;;;;;7.01;80.86;102296.50;5051483;28;20099;-68
2022/01/22 07:32:27;;;;;;;298.67;284.42;;;;;;;7.18;79.97;102297.13;5051216;28;20103;-68
2022/01/22 07:34:55;;;;;;;265.98;253.30;;;;;;;7.28;79.67;102291.75;5051019;28;20047;-68
2022/01/22 07:37:21;;;;;;;288.67;274.25;;;;;;;7.03;80.61;102307.75;5051595;28;20037;-67
2022/01/22 07:39:48;;;;;;;320.77;304.60;;;;;;;7.05;80.44;102303.41;5035103;28;20045;-67
2022/01/22 07:42:14;;;;;;;323.25;306.23;;;;;;;7.19;80.09;102302.34;5050196;28;20049;-68
2022/01/22 07:44:40;;;;;;;270.17;257.17;;;;;;;7.17;80.37;102309.31;5049469;28;20110;-68
2022/01/22 07:47:07;;;;;;;291.52;276.17;;;;;;;7.14;80.64;102314.56;5050796;28;20049;-68
2022/01/22 07:49:33;;;;;;;246.38;234.10;;;;;;;7.32;79.65;102316.94;5050926;28;20041;-68
2022/01/22 07:52:01;;;;;;;262.65;249.57;;;;;;;7.26;79.36;102319.63;5051781;28;20445;-68
2022/01/22 07:54:27;;;;;;;248.43;236.07;;;;;;;7.19;80.16;102322.34;5051623;28;20087;-68
2022/01/22 07:56:53;;;;;;;279.65;265.50;;;;;;;7.16;80.02;102327.59;5044828;28;20087;-67
2022/01/22 07:59:20;;;;;;;253.10;240.32;;;;;;;7.04;81.08;102325.13;5044490;28;20052;-67
2022/01/22 08:01:46;;;;;;;293.33;278.70;;;;;;;6.90;81.33;102319.22;5045989;28;20045;-68
2022/01/22 08:04:12;;;;;;;322.83;307.17;;;;;;;6.90;81.09;102320.09;5049432;28;20094;-69
2022/01/22 08:06:39;;;;;;;254.85;242.50;;;;;;;7.21;80.28;102328.38;5052172;28;20098;-68
2022/01/22 08:09:06;;;;;;;312.05;296.58;;;;;;;7.17;80.62;102339.75;5052618;28;20044;-68
2022/01/22 08:11:33;;;;;;;241.70;229.60;;;;;;;7.40;79.65;102335.09;5067547;28;20044;-67
2022/01/22 08:13:59;;;;;;;274.60;260.65;;;;;;;7.43;79.55;102334.22;5062349;28;20130;-68
2022/01/22 08:16:25;;;;;;;262.20;249.18;;;;;;;7.52;79.25;102340.16;5068223;28;20045;-67
2022/01/22 08:18:52;;;;;;;269.52;255.82;;;;;;;7.41;79.12;102336.84;5074728;28;20029;-67
2022/01/22 08:21:19;;;;;;;284.00;270.23;;;;;;;7.26;79.85;102339.63;5074647;28;20063;-67
2022/01/22 08:23:45;;;;;;;269.33;255.77;;;;;;;7.38;79.72;102339.50;5070249;28;20033;-67
2022/01/22 08:26:17;;;;;;;274.48;259.92;;;;;;;7.44;79.23;102339.41;5057077;28;20025;-67
2022/01/22 08:28:59;;;;;;;280.50;266.08;;;;;;;7.54;79.41;102343.59;5063932;28;20418;-68
2022/01/22 08:31:40;;;;;;;288.70;274.00;;;;;;;7.63;78.29;102334.78;5050262;28;20056;-68
2022/01/22 08:36:51;;;;;;;318.05;302.63;;;;;;;7.61;78.66;102340.03;5037805;28;20424;-67
2022/01/22 08:39:19;;;;;;;271.40;258.33;;;;;;;7.61;78.75;102337.41;5049333;28;20396;-68
2022/01/22 08:41:47;;;;;;;246.35;234.23;;;;;;;7.62;79.27;102339.16;5049617;28;20045;-67
2022/01/22 08:44:13;;;;;;;262.13;248.60;;;;;;;7.66;79.33;102334.75;5049474;28;20041;-68
2022/01/22 08:46:40;;;;;;;269.70;256.00;;;;;;;7.80;79.00;102331.03;5030315;28;20631;-67
2022/01/22 08:49:08;;;;;;;276.65;261.65;;;;;;;8.00;78.65;102337.72;5043100;28;20625;-67
2022/01/22 08:51:38;;;;;;;259.65;246.15;;;;;;;8.09;78.54;102332.34;5039008;28;20459;-67
2022/01/22 08:54:04;;;;;;;273.13;259.58;;;;;;;8.11;78.23;102341.88;5030091;28;20523;-67
2022/01/22 08:56:31;;;;;;;278.90;264.25;;;;;;;8.10;78.30;102348.00;5044801;28;20050;-68
2022/01/22 08:58:59;;;;;;;341.70;324.05;;;;;;;8.18;77.54;102347.88;5047259;28;20737;-67
2022/01/22 09:01:25;;;;;;;370.92;352.48;;;;;;;8.13;77.23;102355.78;5044555;28;20107;-69
2022/01/22 09:03:52;;;;;;;365.50;347.67;;;;;;;8.10;77.18;102353.22;5035153;28;20046;-68
2022/01/22 09:06:20;;;;;;;336.38;320.05;;;;;;;7.97;77.51;102356.06;5045926;28;20048;-68
2022/01/22 09:08:50;;;;;;;311.38;296.02;;;;;;;7.93;77.92;102357.84;5033416;28;20045;-67
2022/01/22 09:11:16;;;;;;;334.73;317.98;;;;;;;7.79;78.66;102359.81;5047967;28;20599;-68
2022/01/22 09:13:43;;;;;;;335.15;318.45;;;;;;;7.91;78.19;102357.00;5049569;28;20044;-68
2022/01/22 09:16:10;;;;;;;320.25;304.48;;;;;;;7.93;77.94;102365.69;5034300;28;20122;-69
2022/01/22 09:18:37;;;;;;;346.70;330.00;;;;;;;7.87;78.63;102375.38;5048699;28;20142;-68
2022/01/22 09:21:04;;;;;;;354.65;336.55;;;;;;;7.93;77.94;102370.03;5046453;28;20104;-68
2022/01/22 09:23:32;;;;;;;358.10;339.85;;;;;;;7.96;78.34;102377.81;5044359;28;20137;-69
2022/01/22 09:26:00;;;;;;;357.92;340.73;;;;;;;8.01;78.00;102386.47;5048709;28;20613;-69
2022/01/22 09:28:27;;;;;;;318.67;303.38;;;;;;;7.71;79.24;102396.47;5046077;28;20444;-69
2022/01/22 09:30:54;;;;;;;346.75;330.02;;;;;;;7.98;78.26;102392.56;5032938;28;20041;-69
2022/01/22 09:33:22;;;;;;;289.38;275.20;;;;;;;7.97;78.84;102403.06;5043350;28;20119;-69
2022/01/22 09:35:48;;;;;;;327.48;310.90;;;;;;;8.08;78.16;102402.03;5031522;28;20114;-70
2022/01/22 09:38:14;;;;;;;399.73;380.10;;;;;;;8.14;77.47;102407.16;5038640;28;20045;-69
2022/01/22 09:40:41;;;;;;;380.63;362.50;;;;;;;8.14;77.77;102401.06;5033652;28;20041;-69
2022/01/22 09:43:09;;;;;;;395.67;376.05;;;;;;;8.27;76.87;102413.06;5039384;28;20053;-69
2022/01/22 09:45:36;;;;;;;378.63;360.40;;;;;;;8.25;76.93;102417.44;5040408;28;20061;-69
2022/01/22 09:48:02;;;;;;;383.98;365.63;;;;;;;8.14;77.29;102419.34;5048030;28;20053;-69
2022/01/22 09:50:32;;;;;;;299.20;284.50;;;;;;;8.22;77.60;102417.50;5047576;28;20069;-69
2022/01/22 09:52:58;;;;;;;388.98;369.95;;;;;;;8.33;77.36;102413.00;5039109;28;20064;-69
2022/01/22 09:55:24;;;;;;;359.08;341.83;;;;;;;8.28;76.46;102406.94;5028964;28;20045;-69
2022/01/22 09:57:53;;;;;;;330.17;314.13;;;;;;;8.23;77.12;102411.38;5041537;28;20049;-70
2022/01/22 10:00:20;;;;;;;309.30;294.23;;;;;;;8.30;76.73;102419.13;5045239;28;20046;-70
2022/01/22 10:02:48;;;;;;;358.88;341.55;;;;;;;8.22;76.79;102413.13;5044625;28;20485;-70
2022/01/22 10:05:33;;;;;;;331.70;315.58;;;;;;;8.42;76.51;102418.09;5046249;28;20037;-69
2022/01/22 10:08:20;;;;;;;292.75;278.85;;;;;;;8.43;76.32;102414.56;5038748;28;20540;-70
2022/01/22 10:10:47;;;;;;;288.40;274.25;;;;;;;8.48;77.06;102428.44;5047361;28;20047;-69
2022/01/22 10:13:14;;;;;;;343.90;326.48;;;;;;;8.61;76.53;102423.88;5038379;28;20084;-69
2022/01/22 10:15:41;;;;;;;376.17;356.80;;;;;;;8.70;76.22;102429.81;5032208;28;20123;-70
2022/01/22 10:18:08;;;;;;;369.05;350.23;;;;;;;8.77;75.81;102431.41;5045988;28;20110;-70
2022/01/22 10:20:39;;;;;;;363.52;345.60;;;;;;;8.87;75.95;102429.50;5039012;28;20049;-70
2022/01/22 10:23:11;;;;;;;337.08;320.38;;;;;;;8.96;75.16;102431.97;5047610;28;20095;-67
2022/01/22 10:25:42;;;;;;;345.85;328.75;;;;;;;9.30;79.05;102432.19;5047575;28;20116;-65
2022/01/22 10:28:10;;;;;;;;;;;;;;;9.64;80.58;102430.63;5046513;28;20042;-64
2022/01/22 10:30:39;;;;;;;372.10;349.23;;;;;;;9.79;75.64;102432.06;5044562;28;20542;-70
2022/01/22 10:33:30;;;;;;;257.63;244.80;;;;;;;9.75;72.62;102436.47;5040773;28;20055;-70
2022/01/22 10:36:08;;;;;;;;;;;;;;;9.51;71.82;102430.88;5046663;28;20110;-70
2022/01/22 10:38:39;;;;;;;252.85;240.73;;;;;;;9.19;73.16;102439.38;5042570;28;19931;-70
2022/01/22 10:41:07;;;;;;;369.27;351.13;;;;;;;9.19;73.15;102442.88;5035391;28;20049;-70
2022/01/22 10:43:36;;;;;;;366.23;347.52;;;;;;;9.29;72.72;102440.94;5043134;28;20049;-70
2022/01/22 10:46:10;;;;;;;378.40;358.83;;;;;;;9.18;73.10;102432.41;5044462;28;20048;-71
2022/01/22 10:48:38;;;;;;;378.77;360.63;;;;;;;8.99;72.80;102431.91;5042516;28;20049;-70
2022/01/22 10:51:08;;;;;;;368.85;350.80;;;;;;;8.67;74.45;102440.31;5047370;28;20416;-70
2022/01/22 10:53:42;;;;;;;409.77;388.90;;;;;;;8.78;74.77;102427.06;5047336;28;20049;-70
2022/01/22 10:56:10;;;;;;;406.30;386.25;;;;;;;8.77;74.10;102420.97;5044412;28;20103;-70
2022/01/22 10:58:47;;;;;;;366.98;348.15;;;;;;;8.88;74.00;102420.75;5033043;28;20502;-70
2022/01/22 11:01:13;;;;;;;432.95;410.73;;;;;;;8.85;73.95;102422.56;5044729;28;20075;-70
2022/01/22 11:03:40;;;;;;;415.80;394.55;;;;;;;8.68;75.56;102420.25;5043324;28;20459;-70
2022/01/22 11:06:25;;;;;;;397.00;376.67;;;;;;;8.68;76.22;102426.34;5047479;28;20493;-70
2022/01/22 11:08:51;;;;;;;382.73;364.25;;;;;;;8.72;76.32;102412.31;5030800;28;20040;-70
2022/01/22 11:11:17;;;;;;;384.35;364.60;;;;;;;8.84;75.65;102420.84;5045613;28;20040;-70
2022/01/22 11:13:44;;;;;;;421.98;400.77;;;;;;;8.97;74.47;102422.34;5047475;28;20140;-70
2022/01/22 11:16:11;;;;;;;367.92;349.00;;;;;;;8.86;74.72;102422.56;5047441;28;20053;-70
2022/01/22 11:18:38;;;;;;;379.20;359.83;;;;;;;8.99;74.11;102425.78;5044288;28;20489;-70
2022/01/22 11:21:06;;;;;;;394.73;375.20;;;;;;;8.98;74.78;102424.09;5046657;28;20456;-70
2022/01/22 11:23:34;;;;;;;455.40;431.88;;;;;;;9.16;74.30;102426.38;5047755;28;20095;-70
2022/01/22 11:26:02;;;;;;;411.63;391.08;;;;;;;9.26;74.36;102426.16;5051223;28;20447;-70
2022/01/22 11:28:29;;;;;;;457.30;433.42;;;;;;;9.38;74.44;102425.06;5045816;28;20087;-70
2022/01/22 11:30:59;;;;;;;459.83;436.23;;;;;;;9.39;74.09;102418.03;5050443;28;20650;-70
2022/01/22 11:33:27;;;;;;;346.38;328.63;;;;;;;9.48;72.61;102421.34;5048635;28;20045;-70
2022/01/22 11:36:02;;;;;;;323.25;306.75;;;;;;;9.50;72.45;102414.31;5038626;28;20037;-69
2022/01/22 11:38:31;;;;;;;330.88;314.60;;;;;;;9.71;71.76;102426.97;5043648;28;20044;-70
2022/01/22 11:41:10;;;;;;;404.42;383.35;;;;;;;9.74;72.36;102413.81;5051360;28;20456;-69
2022/01/22 11:43:55;;;;;;;358.38;341.35;;;;;;;9.78;72.20;102414.59;5050915;28;20132;-69
2022/01/22 11:46:27;;;;;;;370.95;352.08;;;;;;;9.62;71.77;102421.06;5047058;28;20045;-70
2022/01/22 11:49:11;;;;;;;373.35;355.48;;;;;;;9.56;72.41;102414.19;5049823;28;20102;-70
2022/01/22 11:51:38;;;;;;;352.13;334.98;;;;;;;9.45;72.40;102415.31;5047174;28;20570;-69
2022/01/22 11:54:05;;;;;;;327.85;310.70;;;;;;;9.52;72.71;102412.53;5042625;28;20468;-70
2022/01/22 11:56:42;;;;;;;348.77;331.45;;;;;;;9.71;71.70;102415.63;5050811;28;20400;-70
2022/01/22 11:59:33;;;;;;;341.20;324.30;;;;;;;9.64;72.17;102421.91;5051396;28;20420;-70
2022/01/22 12:02:04;;;;;;;326.90;310.25;;;;;;;9.41;72.00;102422.38;5047001;28;20053;-70
2022/01/22 12:04:50;;;;;;;329.10;313.17;;;;;;;9.53;72.38;102432.59;5051330;28;20041;-70